Weather at Young Tactical Landing Site Airport

Public forecast

Using degrees Fahrenheit for public forecast. Weather courtesy of forecast.io.

Closest aviation weather report (METAR) to Young Tactical Landing Site Airport

Closest report is Sparta Fort Mc Coy Airport, 3.3 nm (6.1 km) W. Retrieved 2021/06/23 01:15 UTC (17 minutes ago):

KCMY 230115Z AUTO 10003KT 10SM 20/10 A2990 RMK AO2 T01980103

Closest aviation forecast (TAF) to Young Tactical Landing Site Airport

Forecast is more than 6 hours old.

Closest forecast is Volk Field, 17.7 nm (32.8 km) E. Retrieved 2021/06/22 17:12 UTC (8 hours ago):

TAF KVOK 221700Z 2217/2323 27010G15KT 9999 FEW045 BKN055 QNH2989INS BECMG 2222/2223 VRB06KT 9999 FEW060 QNH2986INS BECMG 2309/2310 16006KT 8000 BR SCT008 BKN025 QNH2985INS BECMG 2314/2315 21010G15KT 9999 NSW FEW030 QNH2979INS TX24/2317Z TN12/2307Z LAST NO AMDS AFT 2221 NEXT 2309